sensor_id;sensor_type;location;lat;lon;timestamp;P1;durP1;ratioP1;P2;durP2;ratioP2
27357;SDS011;14831;50.474;7.616;2022-09-01T00:04:58;2.8;;;2.6;;
27357;SDS011;14831;50.474;7.616;2022-09-01T00:09:59;2.8;;;2.6;;
27357;SDS011;14831;50.474;7.616;2022-09-01T00:14:58;3.3;;;2.4;;
27357;SDS011;14831;50.474;7.616;2022-09-01T00:19:58;3.3;;;2.4;;
27357;SDS011;14831;50.474;7.616;2022-09-01T00:24:58;3.3;;;2.4;;
27357;SDS011;14831;50.474;7.616;2022-09-01T00:29:58;3.3;;;2.4;;
27357;SDS011;14831;50.474;7.616;2022-09-01T00:34:58;3.3;;;2.4;;
27357;SDS011;14831;50.474;7.616;2022-09-01T00:39:58;3.3;;;2.4;;
27357;SDS011;14831;50.474;7.616;2022-09-01T00:44:58;2.3;;;2.1;;
27357;SDS011;14831;50.474;7.616;2022-09-01T00:49:58;2.3;;;2.1;;
27357;SDS011;14831;50.474;7.616;2022-09-01T00:55:08;2.3;;;2.1;;
27357;SDS011;14831;50.474;7.616;2022-09-01T01:00:01;2.3;;;2.1;;
27357;SDS011;14831;50.474;7.616;2022-09-01T01:04:58;2.3;;;2.1;;
27357;SDS011;14831;50.474;7.616;2022-09-01T01:09:58;2.3;;;2.1;;
27357;SDS011;14831;50.474;7.616;2022-09-01T01:14:58;2.2;;;2.0;;
27357;SDS011;14831;50.474;7.616;2022-09-01T01:19:58;2.2;;;2.0;;
27357;SDS011;14831;50.474;7.616;2022-09-01T01:24:58;2.2;;;2.0;;
27357;SDS011;14831;50.474;7.616;2022-09-01T01:29:59;2.2;;;2.0;;
27357;SDS011;14831;50.474;7.616;2022-09-01T01:34:58;2.2;;;2.0;;
27357;SDS011;14831;50.474;7.616;2022-09-01T01:39:58;2.2;;;2.0;;
27357;SDS011;14831;50.474;7.616;2022-09-01T01:44:58;2.2;;;2.1;;
27357;SDS011;14831;50.474;7.616;2022-09-01T01:49:58;2.2;;;2.1;;
27357;SDS011;14831;50.474;7.616;2022-09-01T01:54:58;2.2;;;2.1;;
27357;SDS011;14831;50.474;7.616;2022-09-01T01:59:58;2.2;;;2.1;;
27357;SDS011;14831;50.474;7.616;2022-09-01T02:04:58;2.2;;;2.1;;
27357;SDS011;14831;50.474;7.616;2022-09-01T02:09:58;2.2;;;2.1;;
27357;SDS011;14831;50.474;7.616;2022-09-01T02:14:58;2.0;;;1.9;;
27357;SDS011;14831;50.474;7.616;2022-09-01T02:19:58;2.0;;;1.9;;
27357;SDS011;14831;50.474;7.616;2022-09-01T02:24:58;2.0;;;1.9;;
27357;SDS011;14831;50.474;7.616;2022-09-01T02:29:58;2.0;;;1.9;;
27357;SDS011;14831;50.474;7.616;2022-09-01T02:34:58;2.0;;;1.9;;
27357;SDS011;14831;50.474;7.616;2022-09-01T02:39:58;2.0;;;1.9;;
27357;SDS011;14831;50.474;7.616;2022-09-01T02:44:58;2.1;;;2.0;;
27357;SDS011;14831;50.474;7.616;2022-09-01T02:49:58;2.1;;;2.0;;
27357;SDS011;14831;50.474;7.616;2022-09-01T02:54:58;2.1;;;2.0;;
27357;SDS011;14831;50.474;7.616;2022-09-01T02:59:58;2.1;;;2.0;;
27357;SDS011;14831;50.474;7.616;2022-09-01T03:04:58;2.1;;;2.0;;
27357;SDS011;14831;50.474;7.616;2022-09-01T03:09:58;2.1;;;2.0;;
27357;SDS011;14831;50.474;7.616;2022-09-01T03:14:58;4.6;;;2.2;;
27357;SDS011;14831;50.474;7.616;2022-09-01T03:19:58;4.6;;;2.2;;
27357;SDS011;14831;50.474;7.616;2022-09-01T03:24:58;4.6;;;2.2;;
27357;SDS011;14831;50.474;7.616;2022-09-01T03:29:58;4.6;;;2.2;;
27357;SDS011;14831;50.474;7.616;2022-09-01T03:34:58;4.6;;;2.2;;
27357;SDS011;14831;50.474;7.616;2022-09-01T03:39:58;4.6;;;2.2;;
27357;SDS011;14831;50.474;7.616;2022-09-01T03:44:58;2.1;;;1.9;;
27357;SDS011;14831;50.474;7.616;2022-09-01T03:49:58;2.1;;;1.9;;
27357;SDS011;14831;50.474;7.616;2022-09-01T03:54:58;2.1;;;1.9;;
27357;SDS011;14831;50.474;7.616;2022-09-01T03:59:58;2.1;;;1.9;;
27357;SDS011;14831;50.474;7.616;2022-09-01T04:04:58;2.1;;;1.9;;
27357;SDS011;14831;50.474;7.616;2022-09-01T04:09:58;2.1;;;1.9;;
27357;SDS011;14831;50.474;7.616;2022-09-01T04:14:58;2.4;;;2.2;;
27357;SDS011;14831;50.474;7.616;2022-09-01T04:19:58;2.4;;;2.2;;
27357;SDS011;14831;50.474;7.616;2022-09-01T04:24:58;2.4;;;2.2;;
27357;SDS011;14831;50.474;7.616;2022-09-01T04:29:58;2.4;;;2.2;;
27357;SDS011;14831;50.474;7.616;2022-09-01T04:34:58;2.4;;;2.2;;
27357;SDS011;14831;50.474;7.616;2022-09-01T04:39:58;2.4;;;2.2;;
27357;SDS011;14831;50.474;7.616;2022-09-01T04:44:58;1.9;;;1.7;;
27357;SDS011;14831;50.474;7.616;2022-09-01T04:49:58;1.9;;;1.7;;
27357;SDS011;14831;50.474;7.616;2022-09-01T04:54:58;1.9;;;1.7;;
27357;SDS011;14831;50.474;7.616;2022-09-01T04:59:58;1.9;;;1.7;;
27357;SDS011;14831;50.474;7.616;2022-09-01T05:04:58;1.9;;;1.7;;
27357;SDS011;14831;50.474;7.616;2022-09-01T05:09:58;1.9;;;1.7;;
27357;SDS011;14831;50.474;7.616;2022-09-01T05:14:58;2.0;;;1.6;;
27357;SDS011;14831;50.474;7.616;2022-09-01T05:19:58;2.0;;;1.6;;
27357;SDS011;14831;50.474;7.616;2022-09-01T05:24:58;2.0;;;1.6;;
27357;SDS011;14831;50.474;7.616;2022-09-01T05:29:58;2.0;;;1.6;;
27357;SDS011;14831;50.474;7.616;2022-09-01T05:34:58;2.0;;;1.6;;
27357;SDS011;14831;50.474;7.616;2022-09-01T05:39:58;2.0;;;1.6;;
27357;SDS011;14831;50.474;7.616;2022-09-01T05:44:58;1.6;;;1.5;;
27357;SDS011;14831;50.474;7.616;2022-09-01T05:49:58;1.6;;;1.5;;
27357;SDS011;14831;50.474;7.616;2022-09-01T05:54:58;1.6;;;1.5;;
27357;SDS011;14831;50.474;7.616;2022-09-01T05:59:58;1.6;;;1.5;;
27357;SDS011;14831;50.474;7.616;2022-09-01T06:04:58;1.6;;;1.5;;
27357;SDS011;14831;50.474;7.616;2022-09-01T06:09:59;1.6;;;1.5;;
27357;SDS011;14831;50.474;7.616;2022-09-01T06:14:58;3.0;;;2.1;;
27357;SDS011;14831;50.474;7.616;2022-09-01T06:19:58;3.0;;;2.1;;
27357;SDS011;14831;50.474;7.616;2022-09-01T06:24:58;3.0;;;2.1;;
27357;SDS011;14831;50.474;7.616;2022-09-01T06:29:59;3.0;;;2.1;;
27357;SDS011;14831;50.474;7.616;2022-09-01T06:34:58;3.0;;;2.1;;
27357;SDS011;14831;50.474;7.616;2022-09-01T06:39:58;3.0;;;2.1;;
27357;SDS011;14831;50.474;7.616;2022-09-01T06:44:58;3.6;;;2.5;;
27357;SDS011;14831;50.474;7.616;2022-09-01T06:49:58;3.6;;;2.5;;
27357;SDS011;14831;50.474;7.616;2022-09-01T06:54:58;3.6;;;2.5;;
27357;SDS011;14831;50.474;7.616;2022-09-01T06:59:58;3.6;;;2.5;;
27357;SDS011;14831;50.474;7.616;2022-09-01T07:04:58;3.6;;;2.5;;
27357;SDS011;14831;50.474;7.616;2022-09-01T07:09:58;3.6;;;2.5;;
27357;SDS011;14831;50.474;7.616;2022-09-01T07:14:58;3.1;;;2.2;;
27357;SDS011;14831;50.474;7.616;2022-09-01T07:19:58;3.1;;;2.2;;
27357;SDS011;14831;50.474;7.616;2022-09-01T07:24:58;3.1;;;2.2;;
27357;SDS011;14831;50.474;7.616;2022-09-01T07:29:58;3.1;;;2.2;;
27357;SDS011;14831;50.474;7.616;2022-09-01T07:34:58;3.1;;;2.2;;
27357;SDS011;14831;50.474;7.616;2022-09-01T07:39:58;3.1;;;2.2;;
27357;SDS011;14831;50.474;7.616;2022-09-01T07:44:58;2.6;;;1.8;;
27357;SDS011;14831;50.474;7.616;2022-09-01T07:49:58;2.6;;;1.8;;
27357;SDS011;14831;50.474;7.616;2022-09-01T07:54:58;2.6;;;1.8;;
27357;SDS011;14831;50.474;7.616;2022-09-01T07:59:58;2.6;;;1.8;;
27357;SDS011;14831;50.474;7.616;2022-09-01T08:04:58;2.6;;;1.8;;
27357;SDS011;14831;50.474;7.616;2022-09-01T08:09:58;2.6;;;1.8;;
27357;SDS011;14831;50.474;7.616;2022-09-01T08:15:00;2.2;;;1.7;;
27357;SDS011;14831;50.474;7.616;2022-09-01T08:19:58;2.2;;;1.7;;
27357;SDS011;14831;50.474;7.616;2022-09-01T08:24:58;2.2;;;1.7;;
27357;SDS011;14831;50.474;7.616;2022-09-01T08:29:58;2.2;;;1.7;;
27357;SDS011;14831;50.474;7.616;2022-09-01T08:34:59;2.2;;;1.7;;
27357;SDS011;14831;50.474;7.616;2022-09-01T08:39:58;2.2;;;1.7;;
27357;SDS011;14831;50.474;7.616;2022-09-01T08:45:03;4.2;;;2.2;;
27357;SDS011;14831;50.474;7.616;2022-09-01T08:49:58;4.2;;;2.2;;
27357;SDS011;14831;50.474;7.616;2022-09-01T08:55:03;4.2;;;2.2;;
27357;SDS011;14831;50.474;7.616;2022-09-01T08:59:58;4.2;;;2.2;;
27357;SDS011;14831;50.474;7.616;2022-09-01T09:05:03;4.2;;;2.2;;
27357;SDS011;14831;50.474;7.616;2022-09-01T09:10:05;4.2;;;2.2;;
27357;SDS011;14831;50.474;7.616;2022-09-01T09:15:09;2.6;;;2.4;;
27357;SDS011;14831;50.474;7.616;2022-09-01T09:19:59;2.6;;;2.4;;
27357;SDS011;14831;50.474;7.616;2022-09-01T09:25:03;2.6;;;2.4;;
27357;SDS011;14831;50.474;7.616;2022-09-01T09:29:59;2.6;;;2.4;;
27357;SDS011;14831;50.474;7.616;2022-09-01T09:35:17;2.6;;;2.4;;
27357;SDS011;14831;50.474;7.616;2022-09-01T09:40:06;2.6;;;2.4;;
27357;SDS011;14831;50.474;7.616;2022-09-01T09:44:58;2.8;;;2.6;;
27357;SDS011;14831;50.474;7.616;2022-09-01T09:50:13;2.8;;;2.6;;
27357;SDS011;14831;50.474;7.616;2022-09-01T09:55:02;2.8;;;2.6;;
27357;SDS011;14831;50.474;7.616;2022-09-01T10:00:03;2.8;;;2.6;;
27357;SDS011;14831;50.474;7.616;2022-09-01T10:04:59;2.8;;;2.6;;
27357;SDS011;14831;50.474;7.616;2022-09-01T10:10:00;2.8;;;2.6;;
27357;SDS011;14831;50.474;7.616;2022-09-01T10:15:03;3.8;;;3.5;;
27357;SDS011;14831;50.474;7.616;2022-09-01T10:20:00;3.8;;;3.5;;
27357;SDS011;14831;50.474;7.616;2022-09-01T10:24:58;3.8;;;3.5;;
27357;SDS011;14831;50.474;7.616;2022-09-01T10:30:05;3.8;;;3.5;;
27357;SDS011;14831;50.474;7.616;2022-09-01T10:34:58;3.8;;;3.5;;
27357;SDS011;14831;50.474;7.616;2022-09-01T10:41:03;3.8;;;3.5;;
27357;SDS011;14831;50.474;7.616;2022-09-01T10:44:58;3.8;;;3.5;;
27357;SDS011;14831;50.474;7.616;2022-09-01T10:50:03;3.8;;;3.5;;
27357;SDS011;14831;50.474;7.616;2022-09-01T10:55:00;3.8;;;3.5;;
27357;SDS011;14831;50.474;7.616;2022-09-01T11:00:42;3.8;;;3.5;;
27357;SDS011;14831;50.474;7.616;2022-09-01T11:05:16;3.8;;;3.5;;
27357;SDS011;14831;50.474;7.616;2022-09-01T11:10:20;3.8;;;3.5;;
27357;SDS011;14831;50.474;7.616;2022-09-01T11:15:00;3.9;;;3.5;;
27357;SDS011;14831;50.474;7.616;2022-09-01T11:20:04;3.9;;;3.5;;
27357;SDS011;14831;50.474;7.616;2022-09-01T11:25:33;3.9;;;3.5;;
27357;SDS011;14831;50.474;7.616;2022-09-01T11:30:02;3.9;;;3.5;;
27357;SDS011;14831;50.474;7.616;2022-09-01T11:35:00;3.9;;;3.5;;
27357;SDS011;14831;50.474;7.616;2022-09-01T11:40:00;3.9;;;3.5;;
27357;SDS011;14831;50.474;7.616;2022-09-01T11:45:01;5.0;;;4.2;;
27357;SDS011;14831;50.474;7.616;2022-09-01T11:50:00;5.0;;;4.2;;
27357;SDS011;14831;50.474;7.616;2022-09-01T11:54:58;5.0;;;4.2;;
27357;SDS011;14831;50.474;7.616;2022-09-01T12:00:00;5.0;;;4.2;;
27357;SDS011;14831;50.474;7.616;2022-09-01T12:05:00;5.0;;;4.2;;
27357;SDS011;14831;50.474;7.616;2022-09-01T12:09:58;5.0;;;4.2;;
27357;SDS011;14831;50.474;7.616;2022-09-01T12:15:00;4.3;;;4.0;;
27357;SDS011;14831;50.474;7.616;2022-09-01T12:20:19;4.3;;;4.0;;
27357;SDS011;14831;50.474;7.616;2022-09-01T12:24:58;4.3;;;4.0;;
27357;SDS011;14831;50.474;7.616;2022-09-01T12:29:58;4.3;;;4.0;;
27357;SDS011;14831;50.474;7.616;2022-09-01T12:35:02;4.3;;;4.0;;
27357;SDS011;14831;50.474;7.616;2022-09-01T12:39:59;4.3;;;4.0;;
27357;SDS011;14831;50.474;7.616;2022-09-01T12:44:59;4.4;;;3.8;;
27357;SDS011;14831;50.474;7.616;2022-09-01T12:49:59;4.4;;;3.8;;
27357;SDS011;14831;50.474;7.616;2022-09-01T12:55:11;4.4;;;3.8;;
27357;SDS011;14831;50.474;7.616;2022-09-01T13:00:16;4.4;;;3.8;;
27357;SDS011;14831;50.474;7.616;2022-09-01T13:05:18;4.4;;;3.8;;
27357;SDS011;14831;50.474;7.616;2022-09-01T13:09:58;4.4;;;3.8;;
27357;SDS011;14831;50.474;7.616;2022-09-01T13:14:58;3.9;;;3.5;;
27357;SDS011;14831;50.474;7.616;2022-09-01T13:19:58;3.9;;;3.5;;
27357;SDS011;14831;50.474;7.616;2022-09-01T13:24:58;3.9;;;3.5;;
27357;SDS011;14831;50.474;7.616;2022-09-01T13:29:58;3.9;;;3.5;;
27357;SDS011;14831;50.474;7.616;2022-09-01T13:34:58;3.9;;;3.5;;
27357;SDS011;14831;50.474;7.616;2022-09-01T13:39:58;3.9;;;3.5;;
27357;SDS011;14831;50.474;7.616;2022-09-01T13:44:58;3.3;;;3.0;;
27357;SDS011;14831;50.474;7.616;2022-09-01T13:49:59;3.3;;;3.0;;
27357;SDS011;14831;50.474;7.616;2022-09-01T13:54:58;3.3;;;3.0;;
27357;SDS011;14831;50.474;7.616;2022-09-01T13:59:58;3.3;;;3.0;;
27357;SDS011;14831;50.474;7.616;2022-09-01T14:04:58;3.3;;;3.0;;
27357;SDS011;14831;50.474;7.616;2022-09-01T14:09:58;3.3;;;3.0;;
27357;SDS011;14831;50.474;7.616;2022-09-01T14:14:58;3.0;;;2.7;;
27357;SDS011;14831;50.474;7.616;2022-09-01T14:19:58;3.0;;;2.7;;
27357;SDS011;14831;50.474;7.616;2022-09-01T14:24:58;3.0;;;2.7;;
27357;SDS011;14831;50.474;7.616;2022-09-01T14:29:58;3.0;;;2.7;;
27357;SDS011;14831;50.474;7.616;2022-09-01T14:34:58;3.0;;;2.7;;
27357;SDS011;14831;50.474;7.616;2022-09-01T14:39:58;3.0;;;2.7;;
27357;SDS011;14831;50.474;7.616;2022-09-01T14:44:58;3.0;;;2.7;;
27357;SDS011;14831;50.474;7.616;2022-09-01T14:49:58;3.0;;;2.7;;
27357;SDS011;14831;50.474;7.616;2022-09-01T14:54:58;3.0;;;2.7;;
27357;SDS011;14831;50.474;7.616;2022-09-01T14:59:58;3.0;;;2.7;;
27357;SDS011;14831;50.474;7.616;2022-09-01T15:04:58;3.0;;;2.7;;
27357;SDS011;14831;50.474;7.616;2022-09-01T15:09:58;3.0;;;2.7;;
27357;SDS011;14831;50.474;7.616;2022-09-01T15:14:58;3.6;;;2.7;;
27357;SDS011;14831;50.474;7.616;2022-09-01T15:19:59;3.6;;;2.7;;
27357;SDS011;14831;50.474;7.616;2022-09-01T15:24:58;3.6;;;2.7;;
27357;SDS011;14831;50.474;7.616;2022-09-01T15:29:58;3.6;;;2.7;;
27357;SDS011;14831;50.474;7.616;2022-09-01T15:34:58;3.6;;;2.7;;
27357;SDS011;14831;50.474;7.616;2022-09-01T15:39:58;3.6;;;2.7;;
27357;SDS011;14831;50.474;7.616;2022-09-01T15:44:58;3.0;;;2.7;;
27357;SDS011;14831;50.474;7.616;2022-09-01T15:49:58;3.0;;;2.7;;
27357;SDS011;14831;50.474;7.616;2022-09-01T15:54:58;3.0;;;2.7;;
27357;SDS011;14831;50.474;7.616;2022-09-01T15:59:58;3.0;;;2.7;;
27357;SDS011;14831;50.474;7.616;2022-09-01T16:04:58;3.0;;;2.7;;
27357;SDS011;14831;50.474;7.616;2022-09-01T16:09:58;3.0;;;2.7;;
27357;SDS011;14831;50.474;7.616;2022-09-01T16:14:58;3.1;;;2.6;;
27357;SDS011;14831;50.474;7.616;2022-09-01T16:20:01;3.1;;;2.6;;
27357;SDS011;14831;50.474;7.616;2022-09-01T16:25:00;3.1;;;2.6;;
27357;SDS011;14831;50.474;7.616;2022-09-01T16:30:01;3.1;;;2.6;;
27357;SDS011;14831;50.474;7.616;2022-09-01T16:35:00;3.1;;;2.6;;
27357;SDS011;14831;50.474;7.616;2022-09-01T16:40:06;3.1;;;2.6;;
27357;SDS011;14831;50.474;7.616;2022-09-01T16:45:04;3.2;;;2.9;;
27357;SDS011;14831;50.474;7.616;2022-09-01T16:50:05;3.2;;;2.9;;
27357;SDS011;14831;50.474;7.616;2022-09-01T16:55:13;3.2;;;2.9;;
27357;SDS011;14831;50.474;7.616;2022-09-01T16:59:59;3.2;;;2.9;;
27357;SDS011;14831;50.474;7.616;2022-09-01T17:05:03;3.2;;;2.9;;
27357;SDS011;14831;50.474;7.616;2022-09-01T17:10:03;3.2;;;2.9;;
27357;SDS011;14831;50.474;7.616;2022-09-01T17:15:02;3.0;;;2.7;;
27357;SDS011;14831;50.474;7.616;2022-09-01T17:20:00;3.0;;;2.7;;
27357;SDS011;14831;50.474;7.616;2022-09-01T17:25:02;3.0;;;2.7;;
27357;SDS011;14831;50.474;7.616;2022-09-01T17:29:58;3.0;;;2.7;;
27357;SDS011;14831;50.474;7.616;2022-09-01T17:35:07;3.0;;;2.7;;
27357;SDS011;14831;50.474;7.616;2022-09-01T17:40:05;3.0;;;2.7;;
27357;SDS011;14831;50.474;7.616;2022-09-01T17:45:05;2.6;;;2.4;;
27357;SDS011;14831;50.474;7.616;2022-09-01T17:50:06;2.6;;;2.4;;
27357;SDS011;14831;50.474;7.616;2022-09-01T17:55:03;2.6;;;2.4;;
27357;SDS011;14831;50.474;7.616;2022-09-01T18:00:03;2.6;;;2.4;;
27357;SDS011;14831;50.474;7.616;2022-09-01T18:05:03;2.6;;;2.4;;
27357;SDS011;14831;50.474;7.616;2022-09-01T18:10:01;2.6;;;2.4;;
27357;SDS011;14831;50.474;7.616;2022-09-01T18:15:03;2.7;;;2.5;;
27357;SDS011;14831;50.474;7.616;2022-09-01T18:20:04;2.7;;;2.5;;
27357;SDS011;14831;50.474;7.616;2022-09-01T18:25:03;2.7;;;2.5;;
27357;SDS011;14831;50.474;7.616;2022-09-01T18:29:58;2.7;;;2.5;;
27357;SDS011;14831;50.474;7.616;2022-09-01T18:35:07;2.7;;;2.5;;
27357;SDS011;14831;50.474;7.616;2022-09-01T18:40:03;2.7;;;2.5;;
27357;SDS011;14831;50.474;7.616;2022-09-01T18:45:02;2.7;;;2.5;;
27357;SDS011;14831;50.474;7.616;2022-09-01T18:50:05;2.7;;;2.5;;
27357;SDS011;14831;50.474;7.616;2022-09-01T18:55:06;2.7;;;2.5;;
27357;SDS011;14831;50.474;7.616;2022-09-01T19:00:05;2.7;;;2.5;;
27357;SDS011;14831;50.474;7.616;2022-09-01T19:05:01;2.7;;;2.5;;
27357;SDS011;14831;50.474;7.616;2022-09-01T19:10:04;2.7;;;2.5;;
27357;SDS011;14831;50.474;7.616;2022-09-01T19:15:03;2.7;;;2.5;;
27357;SDS011;14831;50.474;7.616;2022-09-01T19:20:00;2.7;;;2.5;;
27357;SDS011;14831;50.474;7.616;2022-09-01T19:25:03;2.7;;;2.5;;
27357;SDS011;14831;50.474;7.616;2022-09-01T19:30:03;2.7;;;2.5;;
27357;SDS011;14831;50.474;7.616;2022-09-01T19:35:04;2.7;;;2.5;;
27357;SDS011;14831;50.474;7.616;2022-09-01T19:39:58;2.7;;;2.5;;
27357;SDS011;14831;50.474;7.616;2022-09-01T19:45:06;3.2;;;2.3;;
27357;SDS011;14831;50.474;7.616;2022-09-01T19:50:04;3.2;;;2.3;;
27357;SDS011;14831;50.474;7.616;2022-09-01T19:55:03;3.2;;;2.3;;
27357;SDS011;14831;50.474;7.616;2022-09-01T20:00:06;3.2;;;2.3;;
27357;SDS011;14831;50.474;7.616;2022-09-01T20:05:05;3.2;;;2.3;;
27357;SDS011;14831;50.474;7.616;2022-09-01T20:10:04;3.2;;;2.3;;
27357;SDS011;14831;50.474;7.616;2022-09-01T20:15:04;2.5;;;2.3;;
27357;SDS011;14831;50.474;7.616;2022-09-01T20:20:05;2.5;;;2.3;;
27357;SDS011;14831;50.474;7.616;2022-09-01T20:25:01;2.5;;;2.3;;
27357;SDS011;14831;50.474;7.616;2022-09-01T20:30:02;2.5;;;2.3;;
27357;SDS011;14831;50.474;7.616;2022-09-01T20:35:05;2.5;;;2.3;;
27357;SDS011;14831;50.474;7.616;2022-09-01T20:40:03;2.5;;;2.3;;
27357;SDS011;14831;50.474;7.616;2022-09-01T20:44:59;2.5;;;2.1;;
27357;SDS011;14831;50.474;7.616;2022-09-01T20:49:59;2.5;;;2.1;;
27357;SDS011;14831;50.474;7.616;2022-09-01T20:55:02;2.5;;;2.1;;
27357;SDS011;14831;50.474;7.616;2022-09-01T21:00:03;2.5;;;2.1;;
27357;SDS011;14831;50.474;7.616;2022-09-01T21:05:05;2.5;;;2.1;;
27357;SDS011;14831;50.474;7.616;2022-09-01T21:10:04;2.5;;;2.1;;
27357;SDS011;14831;50.474;7.616;2022-09-01T21:15:04;2.2;;;2.0;;
27357;SDS011;14831;50.474;7.616;2022-09-01T21:20:05;2.2;;;2.0;;
27357;SDS011;14831;50.474;7.616;2022-09-01T21:24:58;2.2;;;2.0;;
27357;SDS011;14831;50.474;7.616;2022-09-01T21:30:00;2.2;;;2.0;;
27357;SDS011;14831;50.474;7.616;2022-09-01T21:34:58;2.2;;;2.0;;
27357;SDS011;14831;50.474;7.616;2022-09-01T21:39:58;2.2;;;2.0;;
27357;SDS011;14831;50.474;7.616;2022-09-01T21:44:59;1.9;;;1.8;;
27357;SDS011;14831;50.474;7.616;2022-09-01T21:49:58;1.9;;;1.8;;
27357;SDS011;14831;50.474;7.616;2022-09-01T21:54:58;1.9;;;1.8;;
27357;SDS011;14831;50.474;7.616;2022-09-01T21:59:58;1.9;;;1.8;;
27357;SDS011;14831;50.474;7.616;2022-09-01T22:04:58;1.9;;;1.8;;
27357;SDS011;14831;50.474;7.616;2022-09-01T22:09:58;1.9;;;1.8;;
27357;SDS011;14831;50.474;7.616;2022-09-01T22:14:58;3.0;;;1.8;;
27357;SDS011;14831;50.474;7.616;2022-09-01T22:19:59;3.0;;;1.8;;
27357;SDS011;14831;50.474;7.616;2022-09-01T22:24:58;3.0;;;1.8;;
27357;SDS011;14831;50.474;7.616;2022-09-01T22:29:58;3.0;;;1.8;;
27357;SDS011;14831;50.474;7.616;2022-09-01T22:34:58;3.0;;;1.8;;
27357;SDS011;14831;50.474;7.616;2022-09-01T22:39:58;3.0;;;1.8;;
27357;SDS011;14831;50.474;7.616;2022-09-01T22:44:58;2.2;;;1.7;;
27357;SDS011;14831;50.474;7.616;2022-09-01T22:49:58;2.2;;;1.7;;
27357;SDS011;14831;50.474;7.616;2022-09-01T22:54:58;2.2;;;1.7;;
27357;SDS011;14831;50.474;7.616;2022-09-01T22:59:58;2.2;;;1.7;;
27357;SDS011;14831;50.474;7.616;2022-09-01T23:04:58;2.2;;;1.7;;
27357;SDS011;14831;50.474;7.616;2022-09-01T23:09:58;2.2;;;1.7;;
27357;SDS011;14831;50.474;7.616;2022-09-01T23:14:58;2.7;;;1.8;;
27357;SDS011;14831;50.474;7.616;2022-09-01T23:19:58;2.7;;;1.8;;
27357;SDS011;14831;50.474;7.616;2022-09-01T23:24:58;2.7;;;1.8;;
27357;SDS011;14831;50.474;7.616;2022-09-01T23:29:58;2.7;;;1.8;;
27357;SDS011;14831;50.474;7.616;2022-09-01T23:34:58;2.7;;;1.8;;
27357;SDS011;14831;50.474;7.616;2022-09-01T23:39:58;2.7;;;1.8;;
27357;SDS011;14831;50.474;7.616;2022-09-01T23:44:58;2.2;;;1.6;;
27357;SDS011;14831;50.474;7.616;2022-09-01T23:49:58;2.2;;;1.6;;
27357;SDS011;14831;50.474;7.616;2022-09-01T23:54:58;2.2;;;1.6;;
27357;SDS011;14831;50.474;7.616;2022-09-01T23:59:58;2.2;;;1.6;;
